EPM weather

Eastport Municipal Airport
Eastport, Maine, United States

Public forecast

Using degrees Fahrenheit for public forecast. Weather courtesy of forecast.io.

METAR (pilot weather report)

Closest report is Saint John Airport, 53.4 nm (99.0 km) ENE. Retrieved 2019/04/20 15:00 UTC (54 minutes ago):

CYSJ 201500Z 22014G21KT 1/2SM R23/4000FT/N -RA FG VV002 09/09 A2997 RMK FG8 SLP153

TAF (pilot weather forecast)

Closest forecast is Saint John Airport, 53.4 nm (99.0 km) ENE. Retrieved 2019/04/20 12:42 UTC (3 hours ago):

TAF CYSJ 201141Z 2012/2024 21015KT 2SM -RA BR OVC004 TEMPO 2012/2014 1SM -DZ BR OVC002 FM201400 21012G22KT 11/2SM -RA BR OVC003 TEMPO 2014/2024 1/2SM -DZ FG VV001 RMK NXT FCST BY 201800Z